Terminal Aerodrome Forecast
Issued by NWS

Home | Current Version | Previous Version | Text Only | Print | Product List | Glossary On
Versions: 1 2 3 4 5 6 7 8 9 10 11 12 13 14 15 16 17 18 19 20 21 22
943
FTUS41 KBGM 231238 AAA
TAFELM
TAF AMD
KELM 231238Z 2313/2412 25007KT P6SM SCT002 BKN040
     FM231500 29010G18KT P6SM BKN045
     FM232300 29003KT P6SM SCT120
      TEMPO 2409/2412 2SM BR SCT005=

USA.gov is the U.S. government's official web portal to all federal, state and local government web resources and services.